Aviation Digital Data Service (ADDS)

Output produced by METARs form (0023 UTC 17 July 2019)
found at http://www.aviationweather.gov/metar/data/
 
TAF EGYP 162236Z 1700/1718 29010KT 9999 FEW025 
     PROB40 1706/1714 4000 BR 
     PROB30 1708/1713 2000 MIFG